sensor_id;sensor_type;location;lat;lon;timestamp;pressure;altitude;pressure_sealevel;temperature;humidity
15670;BME280;18524;45.190;5.732;2023-02-16T00:04:28;100440.94;;;9.61;66.71
15670;BME280;18524;45.190;5.732;2023-02-16T00:09:20;100428.59;;;9.63;66.47
15670;BME280;18524;45.190;5.732;2023-02-16T00:14:11;100434.69;;;9.63;65.70
15670;BME280;18524;45.190;5.732;2023-02-16T00:19:39;100436.81;;;9.57;65.86
15670;BME280;18524;45.190;5.732;2023-02-16T00:24:31;100438.06;;;9.50;66.33
15670;BME280;18524;45.190;5.732;2023-02-16T00:29:29;100439.78;;;9.51;66.65
15670;BME280;18524;45.190;5.732;2023-02-16T00:34:28;100435.88;;;9.42;66.44
15670;BME280;18524;45.190;5.732;2023-02-16T00:39:19;100436.06;;;9.39;66.55
15670;BME280;18524;45.190;5.732;2023-02-16T00:44:19;100439.78;;;9.35;65.15
15670;BME280;18524;45.190;5.732;2023-02-16T00:49:15;100446.69;;;9.36;64.65
15670;BME280;18524;45.190;5.732;2023-02-16T00:54:05;100439.03;;;9.33;63.99
15670;BME280;18524;45.190;5.732;2023-02-16T00:58:56;100437.84;;;9.38;63.60
15670;BME280;18524;45.190;5.732;2023-02-16T01:03:47;100444.34;;;9.31;64.74
15670;BME280;18524;45.190;5.732;2023-02-16T01:08:37;100441.00;;;9.28;65.10
15670;BME280;18524;45.190;5.732;2023-02-16T01:13:47;100451.81;;;9.22;65.72
15670;BME280;18524;45.190;5.732;2023-02-16T01:18:39;100448.44;;;9.20;66.45
15670;BME280;18524;45.190;5.732;2023-02-16T01:23:29;100463.06;;;9.24;67.09
15670;BME280;18524;45.190;5.732;2023-02-16T01:28:22;100451.91;;;8.87;69.29
15670;BME280;18524;45.190;5.732;2023-02-16T01:33:13;100451.59;;;8.60;70.47
15670;BME280;18524;45.190;5.732;2023-02-16T01:38:04;100444.13;;;8.70;70.86
15670;BME280;18524;45.190;5.732;2023-02-16T01:43:01;100449.00;;;8.60;70.57
15670;BME280;18524;45.190;5.732;2023-02-16T01:47:55;100450.75;;;8.60;70.89
15670;BME280;18524;45.190;5.732;2023-02-16T01:53:02;100445.69;;;8.39;72.39
15670;BME280;18524;45.190;5.732;2023-02-16T01:58:00;100447.81;;;8.49;72.15
15670;BME280;18524;45.190;5.732;2023-02-16T02:03:00;100443.53;;;8.48;71.83
15670;BME280;18524;45.190;5.732;2023-02-16T02:08:19;100439.53;;;8.40;72.02
15670;BME280;18524;45.190;5.732;2023-02-16T02:13:20;100446.19;;;8.29;72.93
15670;BME280;18524;45.190;5.732;2023-02-16T02:18:11;100438.94;;;8.35;72.56
15670;BME280;18524;45.190;5.732;2023-02-16T02:33:25;100444.25;;;8.15;73.37
15670;BME280;18524;45.190;5.732;2023-02-16T02:43:38;100440.94;;;8.11;73.66
15670;BME280;18524;45.190;5.732;2023-02-16T02:48:31;100442.19;;;8.04;73.72
15670;BME280;18524;45.190;5.732;2023-02-16T02:53:22;100440.88;;;7.96;74.46
15670;BME280;18524;45.190;5.732;2023-02-16T02:58:13;100442.41;;;8.00;73.98
15670;BME280;18524;45.190;5.732;2023-02-16T03:03:35;100442.31;;;7.84;75.45
15670;BME280;18524;45.190;5.732;2023-02-16T03:08:30;100436.66;;;7.74;75.68
15670;BME280;18524;45.190;5.732;2023-02-16T03:13:35;100443.63;;;7.57;76.35
15670;BME280;18524;45.190;5.732;2023-02-16T03:18:27;100432.56;;;7.33;78.41
15670;BME280;18524;45.190;5.732;2023-02-16T03:23:39;100446.38;;;7.35;77.50
15670;BME280;18524;45.190;5.732;2023-02-16T03:28:49;100460.56;;;7.48;77.10
15670;BME280;18524;45.190;5.732;2023-02-16T03:33:59;100456.91;;;7.33;78.13
15670;BME280;18524;45.190;5.732;2023-02-16T03:38:50;100451.41;;;7.20;78.82
15670;BME280;18524;45.190;5.732;2023-02-16T03:43:41;100454.28;;;7.14;79.27
15670;BME280;18524;45.190;5.732;2023-02-16T03:48:31;100457.41;;;7.22;79.42
15670;BME280;18524;45.190;5.732;2023-02-16T03:53:21;100453.44;;;7.33;78.35
15670;BME280;18524;45.190;5.732;2023-02-16T03:58:15;100450.13;;;7.29;78.53
15670;BME280;18524;45.190;5.732;2023-02-16T04:03:06;100468.75;;;7.21;78.76
15670;BME280;18524;45.190;5.732;2023-02-16T04:07:58;100469.09;;;7.14;79.12
15670;BME280;18524;45.190;5.732;2023-02-16T04:12:48;100472.22;;;6.83;80.42
15670;BME280;18524;45.190;5.732;2023-02-16T04:17:39;100471.03;;;6.90;80.38
15670;BME280;18524;45.190;5.732;2023-02-16T04:22:30;100475.47;;;6.88;80.11
15670;BME280;18524;45.190;5.732;2023-02-16T04:27:20;100468.97;;;6.78;80.31
15670;BME280;18524;45.190;5.732;2023-02-16T04:32:10;100473.06;;;6.63;81.41
15670;BME280;18524;45.190;5.732;2023-02-16T04:37:01;100470.16;;;6.71;80.98
15670;BME280;18524;45.190;5.732;2023-02-16T04:41:52;100467.34;;;6.75;80.91
15670;BME280;18524;45.190;5.732;2023-02-16T04:46:42;100472.75;;;6.71;81.15
15670;BME280;18524;45.190;5.732;2023-02-16T04:51:32;100471.84;;;6.72;81.82
15670;BME280;18524;45.190;5.732;2023-02-16T04:56:23;100459.19;;;6.83;80.83
15670;BME280;18524;45.190;5.732;2023-02-16T05:01:18;100470.47;;;6.83;80.76
15670;BME280;18524;45.190;5.732;2023-02-16T05:06:08;100464.19;;;6.87;79.84
15670;BME280;18524;45.190;5.732;2023-02-16T05:10:58;100464.59;;;6.78;80.31
15670;BME280;18524;45.190;5.732;2023-02-16T05:16:07;100467.50;;;6.91;79.83
15670;BME280;18524;45.190;5.732;2023-02-16T05:20:58;100460.59;;;6.90;79.22
15670;BME280;18524;45.190;5.732;2023-02-16T05:26:07;100456.94;;;6.94;77.83
15670;BME280;18524;45.190;5.732;2023-02-16T05:30:57;100468.34;;;6.92;78.13
15670;BME280;18524;45.190;5.732;2023-02-16T05:35:48;100469.34;;;6.89;78.01
15670;BME280;18524;45.190;5.732;2023-02-16T05:40:38;100476.25;;;6.90;77.06
15670;BME280;18524;45.190;5.732;2023-02-16T05:45:28;100479.00;;;6.87;76.00
15670;BME280;18524;45.190;5.732;2023-02-16T05:50:19;100484.00;;;6.92;74.04
15670;BME280;18524;45.190;5.732;2023-02-16T05:55:09;100479.34;;;6.98;73.61
15670;BME280;18524;45.190;5.732;2023-02-16T05:59:59;100477.09;;;6.90;73.46
15670;BME280;18524;45.190;5.732;2023-02-16T06:04:50;100477.81;;;6.94;72.93
15670;BME280;18524;45.190;5.732;2023-02-16T06:09:40;100477.53;;;7.00;72.13
15670;BME280;18524;45.190;5.732;2023-02-16T06:14:31;100478.78;;;6.92;70.97
15670;BME280;18524;45.190;5.732;2023-02-16T06:19:21;100483.72;;;6.98;69.81
15670;BME280;18524;45.190;5.732;2023-02-16T06:24:12;100484.84;;;6.92;68.73
15670;BME280;18524;45.190;5.732;2023-02-16T06:29:03;100481.31;;;6.93;68.98
15670;BME280;18524;45.190;5.732;2023-02-16T06:33:54;100490.88;;;6.74;70.09
15670;BME280;18524;45.190;5.732;2023-02-16T06:38:46;100489.94;;;6.54;74.93
15670;BME280;18524;45.190;5.732;2023-02-16T06:43:36;100504.91;;;6.29;77.65
15670;BME280;18524;45.190;5.732;2023-02-16T06:48:27;100501.94;;;6.38;78.37
15670;BME280;18524;45.190;5.732;2023-02-16T06:53:17;100507.41;;;6.52;78.56
15670;BME280;18524;45.190;5.732;2023-02-16T06:58:10;100517.97;;;6.49;78.11
15670;BME280;18524;45.190;5.732;2023-02-16T07:03:01;100523.81;;;6.34;78.70
15670;BME280;18524;45.190;5.732;2023-02-16T07:07:52;100530.97;;;6.07;80.47
15670;BME280;18524;45.190;5.732;2023-02-16T07:12:42;100521.22;;;6.12;81.25
15670;BME280;18524;45.190;5.732;2023-02-16T07:17:33;100536.00;;;6.12;81.12
15670;BME280;18524;45.190;5.732;2023-02-16T07:22:23;100543.56;;;6.18;81.21
15670;BME280;18524;45.190;5.732;2023-02-16T07:27:13;100542.66;;;6.19;82.12
15670;BME280;18524;45.190;5.732;2023-02-16T07:32:04;100547.66;;;6.45;80.06
15670;BME280;18524;45.190;5.732;2023-02-16T07:36:54;100538.94;;;6.46;79.65
15670;BME280;18524;45.190;5.732;2023-02-16T07:41:45;100541.22;;;6.34;80.11
15670;BME280;18524;45.190;5.732;2023-02-16T07:46:35;100548.72;;;6.41;80.26
15670;BME280;18524;45.190;5.732;2023-02-16T07:51:28;100561.31;;;6.30;81.29
15670;BME280;18524;45.190;5.732;2023-02-16T07:56:22;100548.34;;;6.28;80.81
15670;BME280;18524;45.190;5.732;2023-02-16T08:01:13;100554.34;;;6.73;79.79
15670;BME280;18524;45.190;5.732;2023-02-16T08:06:04;100548.66;;;7.24;77.49
15670;BME280;18524;45.190;5.732;2023-02-16T08:10:55;100552.91;;;7.64;75.49
15670;BME280;18524;45.190;5.732;2023-02-16T08:15:45;100549.03;;;7.92;73.90
15670;BME280;18524;45.190;5.732;2023-02-16T08:20:36;100551.22;;;7.63;73.74
15670;BME280;18524;45.190;5.732;2023-02-16T08:25:27;100548.56;;;7.83;73.28
15670;BME280;18524;45.190;5.732;2023-02-16T08:30:17;100557.50;;;7.78;73.99
15670;BME280;18524;45.190;5.732;2023-02-16T08:35:09;100562.91;;;8.11;73.27
15670;BME280;18524;45.190;5.732;2023-02-16T08:40:00;100556.59;;;7.98;72.70
15670;BME280;18524;45.190;5.732;2023-02-16T08:44:51;100556.28;;;8.23;72.01
15670;BME280;18524;45.190;5.732;2023-02-16T08:49:42;100555.19;;;8.63;70.92
15670;BME280;18524;45.190;5.732;2023-02-16T08:54:33;100561.78;;;8.87;69.59
15670;BME280;18524;45.190;5.732;2023-02-16T08:59:24;100562.09;;;9.16;68.45
15670;BME280;18524;45.190;5.732;2023-02-16T09:04:16;100560.56;;;9.45;66.05
15670;BME280;18524;45.190;5.732;2023-02-16T09:09:09;100554.75;;;9.55;65.05
15670;BME280;18524;45.190;5.732;2023-02-16T09:14:00;100548.75;;;9.53;64.98
15670;BME280;18524;45.190;5.732;2023-02-16T09:18:51;100558.38;;;9.53;65.69
15670;BME280;18524;45.190;5.732;2023-02-16T09:23:44;100556.94;;;9.63;64.91
15670;BME280;18524;45.190;5.732;2023-02-16T09:28:39;100561.22;;;10.13;64.20
15670;BME280;18524;45.190;5.732;2023-02-16T09:33:29;100556.84;;;10.59;61.64
15670;BME280;18524;45.190;5.732;2023-02-16T09:38:19;100552.47;;;10.74;61.64
15670;BME280;18524;45.190;5.732;2023-02-16T09:48:27;100555.06;;;10.89;59.86
15670;BME280;18524;45.190;5.732;2023-02-16T09:53:31;100542.72;;;11.34;58.37
15670;BME280;18524;45.190;5.732;2023-02-16T09:59:10;100546.09;;;11.79;56.12
15670;BME280;18524;45.190;5.732;2023-02-16T10:09:03;100540.50;;;12.51;54.38
15670;BME280;18524;45.190;5.732;2023-02-16T10:14:03;100539.28;;;12.82;52.98
15670;BME280;18524;45.190;5.732;2023-02-16T10:18:55;100530.16;;;13.01;52.27
15670;BME280;18524;45.190;5.732;2023-02-16T10:23:55;100531.56;;;13.19;51.60
15670;BME280;18524;45.190;5.732;2023-02-16T10:28:52;100524.44;;;13.58;50.75
15670;BME280;18524;45.190;5.732;2023-02-16T10:34:02;100526.09;;;13.71;49.73
15670;BME280;18524;45.190;5.732;2023-02-16T10:44:27;100525.34;;;14.30;47.80
15670;BME280;18524;45.190;5.732;2023-02-16T10:49:20;100530.25;;;14.82;45.98
15670;BME280;18524;45.190;5.732;2023-02-16T10:54:21;100510.97;;;15.38;43.68
15670;BME280;18524;45.190;5.732;2023-02-16T10:59:23;100505.91;;;15.57;43.94
15670;BME280;18524;45.190;5.732;2023-02-16T11:04:40;100509.09;;;16.05;42.29
15670;BME280;18524;45.190;5.732;2023-02-16T11:09:31;100493.19;;;16.16;42.18
15670;BME280;18524;45.190;5.732;2023-02-16T11:14:26;100489.09;;;16.65;42.58
15670;BME280;18524;45.190;5.732;2023-02-16T11:19:21;100477.78;;;17.05;40.24
15670;BME280;18524;45.190;5.732;2023-02-16T11:24:28;100476.72;;;17.57;40.34
15670;BME280;18524;45.190;5.732;2023-02-16T11:29:19;100467.72;;;17.69;38.42
15670;BME280;18524;45.190;5.732;2023-02-16T11:45:03;100433.84;;;18.87;37.27
15670;BME280;18524;45.190;5.732;2023-02-16T11:49:33;100428.84;;;19.12;34.77
15670;BME280;18524;45.190;5.732;2023-02-16T11:54:24;100426.81;;;19.33;34.99
15670;BME280;18524;45.190;5.732;2023-02-16T11:59:19;100420.78;;;19.58;34.01
15670;BME280;18524;45.190;5.732;2023-02-16T12:19:47;100381.91;;;20.19;33.85
15670;BME280;18524;45.190;5.732;2023-02-16T12:40:27;100339.75;;;20.14;33.61
15670;BME280;18524;45.190;5.732;2023-02-16T12:45:23;100347.41;;;19.74;34.09
15670;BME280;18524;45.190;5.732;2023-02-16T12:55:24;100331.41;;;19.38;34.61
15670;BME280;18524;45.190;5.732;2023-02-16T13:00:27;100326.81;;;19.30;34.27
15670;BME280;18524;45.190;5.732;2023-02-16T13:05:29;100318.75;;;19.22;33.65
15670;BME280;18524;45.190;5.732;2023-02-16T13:10:23;100313.19;;;18.98;34.81
15670;BME280;18524;45.190;5.732;2023-02-16T13:15:23;100307.94;;;18.41;35.22
15670;BME280;18524;45.190;5.732;2023-02-16T13:20:17;100305.94;;;18.06;35.75
15670;BME280;18524;45.190;5.732;2023-02-16T13:30:55;100296.63;;;17.73;36.53
15670;BME280;18524;45.190;5.732;2023-02-16T13:47:11;100280.78;;;17.04;35.86
15670;BME280;18524;45.190;5.732;2023-02-16T13:52:04;100284.50;;;16.82;36.54
15670;BME280;18524;45.190;5.732;2023-02-16T13:56:58;100284.28;;;16.65;36.58
15670;BME280;18524;45.190;5.732;2023-02-16T14:01:52;100277.53;;;16.51;36.96
15670;BME280;18524;45.190;5.732;2023-02-16T14:06:44;100274.63;;;16.54;36.81
15670;BME280;18524;45.190;5.732;2023-02-16T14:16:48;100268.22;;;16.26;37.29
15670;BME280;18524;45.190;5.732;2023-02-16T14:21:44;100277.25;;;16.44;37.11
15670;BME280;18524;45.190;5.732;2023-02-16T14:26:59;100268.72;;;16.41;37.01
15670;BME280;18524;45.190;5.732;2023-02-16T14:42:16;100264.22;;;16.32;37.05
15670;BME280;18524;45.190;5.732;2023-02-16T14:47:21;100258.22;;;16.30;36.76
15670;BME280;18524;45.190;5.732;2023-02-16T14:58:00;100262.94;;;16.26;37.20
15670;BME280;18524;45.190;5.732;2023-02-16T15:08:21;100253.69;;;16.11;37.31
15670;BME280;18524;45.190;5.732;2023-02-16T15:13:38;100251.72;;;16.13;38.63
15670;BME280;18524;45.190;5.732;2023-02-16T15:18:31;100241.84;;;16.15;38.65
15670;BME280;18524;45.190;5.732;2023-02-16T15:23:25;100231.53;;;16.12;38.17
15670;BME280;18524;45.190;5.732;2023-02-16T15:28:20;100234.75;;;16.15;37.80
15670;BME280;18524;45.190;5.732;2023-02-16T15:48:21;100228.91;;;15.91;40.16
15670;BME280;18524;45.190;5.732;2023-02-16T15:53:13;100234.59;;;15.86;40.46
15670;BME280;18524;45.190;5.732;2023-02-16T15:58:04;100230.28;;;15.85;40.73
15670;BME280;18524;45.190;5.732;2023-02-16T16:02:55;100239.88;;;15.86;40.26
15670;BME280;18524;45.190;5.732;2023-02-16T16:07:48;100240.97;;;15.84;41.01
15670;BME280;18524;45.190;5.732;2023-02-16T16:12:38;100244.03;;;15.79;40.81
15670;BME280;18524;45.190;5.732;2023-02-16T16:17:33;100250.34;;;15.67;40.95
15670;BME280;18524;45.190;5.732;2023-02-16T16:22:35;100243.41;;;15.55;41.43
15670;BME280;18524;45.190;5.732;2023-02-16T16:27:34;100247.00;;;15.54;41.93
15670;BME280;18524;45.190;5.732;2023-02-16T16:32:26;100246.94;;;15.44;42.23
15670;BME280;18524;45.190;5.732;2023-02-16T16:37:32;100249.00;;;15.41;43.77
15670;BME280;18524;45.190;5.732;2023-02-16T16:42:23;100244.69;;;15.40;43.98
15670;BME280;18524;45.190;5.732;2023-02-16T16:47:37;100236.81;;;15.28;43.97
15670;BME280;18524;45.190;5.732;2023-02-16T16:52:35;100241.88;;;15.20;43.30
15670;BME280;18524;45.190;5.732;2023-02-16T16:57:26;100245.25;;;15.11;44.48
15670;BME280;18524;45.190;5.732;2023-02-16T17:02:16;100248.91;;;14.99;45.14
15670;BME280;18524;45.190;5.732;2023-02-16T17:07:07;100249.66;;;14.90;45.18
15670;BME280;18524;45.190;5.732;2023-02-16T17:11:57;100249.78;;;14.77;45.77
15670;BME280;18524;45.190;5.732;2023-02-16T17:16:49;100250.06;;;14.63;46.04
15670;BME280;18524;45.190;5.732;2023-02-16T17:21:40;100272.78;;;14.54;46.01
15670;BME280;18524;45.190;5.732;2023-02-16T17:26:32;100265.56;;;14.45;46.22
15670;BME280;18524;45.190;5.732;2023-02-16T17:31:22;100269.59;;;14.27;46.81
15670;BME280;18524;45.190;5.732;2023-02-16T17:36:14;100284.34;;;14.18;47.29
15670;BME280;18524;45.190;5.732;2023-02-16T17:41:05;100294.16;;;14.05;48.06
15670;BME280;18524;45.190;5.732;2023-02-16T17:45:55;100295.56;;;13.87;48.69
15670;BME280;18524;45.190;5.732;2023-02-16T17:50:49;100301.31;;;13.81;48.50
15670;BME280;18524;45.190;5.732;2023-02-16T17:55:41;100304.72;;;13.70;48.93
15670;BME280;18524;45.190;5.732;2023-02-16T18:00:35;100306.88;;;13.65;49.59
15670;BME280;18524;45.190;5.732;2023-02-16T18:05:27;100316.78;;;13.50;49.24
15670;BME280;18524;45.190;5.732;2023-02-16T18:10:30;100325.03;;;13.45;49.12
15670;BME280;18524;45.190;5.732;2023-02-16T18:15:21;100339.28;;;13.30;49.34
15670;BME280;18524;45.190;5.732;2023-02-16T18:20:13;100339.75;;;13.24;50.11
15670;BME280;18524;45.190;5.732;2023-02-16T18:25:04;100351.16;;;13.12;50.44
15670;BME280;18524;45.190;5.732;2023-02-16T18:29:55;100361.06;;;12.96;51.63
15670;BME280;18524;45.190;5.732;2023-02-16T18:34:45;100364.56;;;12.83;51.71
15670;BME280;18524;45.190;5.732;2023-02-16T18:39:36;100375.75;;;12.74;51.96
15670;BME280;18524;45.190;5.732;2023-02-16T18:44:26;100375.25;;;12.69;51.49
15670;BME280;18524;45.190;5.732;2023-02-16T18:49:16;100379.16;;;12.64;52.28
15670;BME280;18524;45.190;5.732;2023-02-16T18:54:07;100384.50;;;12.75;51.54
15670;BME280;18524;45.190;5.732;2023-02-16T18:58:57;100386.41;;;12.47;52.71
15670;BME280;18524;45.190;5.732;2023-02-16T19:03:47;100391.66;;;12.35;53.27
15670;BME280;18524;45.190;5.732;2023-02-16T19:08:38;100398.56;;;12.23;54.49
15670;BME280;18524;45.190;5.732;2023-02-16T19:13:28;100398.66;;;12.21;54.03
15670;BME280;18524;45.190;5.732;2023-02-16T19:18:19;100393.09;;;12.13;54.91
15670;BME280;18524;45.190;5.732;2023-02-16T19:23:09;100406.56;;;12.21;52.77
15670;BME280;18524;45.190;5.732;2023-02-16T19:27:59;100410.66;;;12.13;52.60
15670;BME280;18524;45.190;5.732;2023-02-16T19:32:50;100430.94;;;11.98;52.72
15670;BME280;18524;45.190;5.732;2023-02-16T19:37:40;100429.44;;;11.94;51.70
15670;BME280;18524;45.190;5.732;2023-02-16T19:42:31;100441.19;;;11.88;51.53
15670;BME280;18524;45.190;5.732;2023-02-16T19:47:22;100442.22;;;11.86;50.44
15670;BME280;18524;45.190;5.732;2023-02-16T19:52:12;100439.06;;;11.81;50.51
15670;BME280;18524;45.190;5.732;2023-02-16T19:57:03;100443.84;;;11.74;50.52
15670;BME280;18524;45.190;5.732;2023-02-16T20:01:53;100448.75;;;11.66;49.86
15670;BME280;18524;45.190;5.732;2023-02-16T20:06:44;100454.31;;;11.62;49.99
15670;BME280;18524;45.190;5.732;2023-02-16T20:11:37;100465.00;;;11.58;50.05
15670;BME280;18524;45.190;5.732;2023-02-16T20:16:28;100467.94;;;11.54;50.13
15670;BME280;18524;45.190;5.732;2023-02-16T20:21:23;100474.03;;;11.40;49.13
15670;BME280;18524;45.190;5.732;2023-02-16T20:26:17;100477.06;;;11.34;50.17
15670;BME280;18524;45.190;5.732;2023-02-16T20:31:13;100480.81;;;11.30;50.59
15670;BME280;18524;45.190;5.732;2023-02-16T20:36:04;100498.94;;;11.20;50.58
15670;BME280;18524;45.190;5.732;2023-02-16T20:40:54;100495.47;;;11.20;50.89
15670;BME280;18524;45.190;5.732;2023-02-16T20:45:45;100493.97;;;11.16;50.75
15670;BME280;18524;45.190;5.732;2023-02-16T20:50:36;100497.31;;;11.04;51.02
15670;BME280;18524;45.190;5.732;2023-02-16T20:55:26;100496.56;;;11.02;51.76
15670;BME280;18524;45.190;5.732;2023-02-16T21:00:19;100491.78;;;10.94;51.62
15670;BME280;18524;45.190;5.732;2023-02-16T21:05:12;100491.97;;;10.91;51.15
15670;BME280;18524;45.190;5.732;2023-02-16T21:10:06;100497.69;;;10.83;52.47
15670;BME280;18524;45.190;5.732;2023-02-16T21:14:56;100505.34;;;10.72;52.48
15670;BME280;18524;45.190;5.732;2023-02-16T21:19:47;100513.75;;;10.63;52.40
15670;BME280;18524;45.190;5.732;2023-02-16T21:24:38;100514.31;;;10.68;52.77
15670;BME280;18524;45.190;5.732;2023-02-16T21:29:29;100526.56;;;10.53;53.82
15670;BME280;18524;45.190;5.732;2023-02-16T21:34:20;100522.78;;;10.43;54.57
15670;BME280;18524;45.190;5.732;2023-02-16T21:39:10;100534.97;;;10.44;55.72
15670;BME280;18524;45.190;5.732;2023-02-16T21:48:51;100538.72;;;10.24;58.61
15670;BME280;18524;45.190;5.732;2023-02-16T21:53:42;100543.88;;;10.26;58.76
15670;BME280;18524;45.190;5.732;2023-02-16T21:58:32;100541.00;;;9.83;59.87
15670;BME280;18524;45.190;5.732;2023-02-16T22:03:23;100543.19;;;9.91;60.60
15670;BME280;18524;45.190;5.732;2023-02-16T22:08:13;100553.31;;;9.65;61.60
15670;BME280;18524;45.190;5.732;2023-02-16T22:13:04;100555.88;;;9.67;60.97
15670;BME280;18524;45.190;5.732;2023-02-16T22:17:54;100547.94;;;9.68;61.34
15670;BME280;18524;45.190;5.732;2023-02-16T22:22:45;100549.50;;;9.55;62.31
15670;BME280;18524;45.190;5.732;2023-02-16T22:27:36;100550.28;;;9.57;61.95
15670;BME280;18524;45.190;5.732;2023-02-16T22:32:26;100546.97;;;9.54;61.85
15670;BME280;18524;45.190;5.732;2023-02-16T22:37:17;100548.84;;;9.52;62.06
15670;BME280;18524;45.190;5.732;2023-02-16T22:42:07;100552.88;;;9.57;61.59
15670;BME280;18524;45.190;5.732;2023-02-16T22:46:57;100555.25;;;9.46;61.49
15670;BME280;18524;45.190;5.732;2023-02-16T22:51:48;100562.94;;;9.49;62.14
15670;BME280;18524;45.190;5.732;2023-02-16T22:56:39;100556.84;;;9.33;63.19
15670;BME280;18524;45.190;5.732;2023-02-16T23:01:30;100556.16;;;9.29;62.79
15670;BME280;18524;45.190;5.732;2023-02-16T23:06:22;100560.75;;;9.24;63.58
15670;BME280;18524;45.190;5.732;2023-02-16T23:11:13;100566.00;;;9.24;63.44
15670;BME280;18524;45.190;5.732;2023-02-16T23:16:11;100567.59;;;9.27;62.75
15670;BME280;18524;45.190;5.732;2023-02-16T23:21:06;100567.91;;;9.21;63.76
15670;BME280;18524;45.190;5.732;2023-02-16T23:25:57;100572.56;;;9.16;63.62
15670;BME280;18524;45.190;5.732;2023-02-16T23:30:48;100576.56;;;9.05;64.70
15670;BME280;18524;45.190;5.732;2023-02-16T23:35:39;100589.81;;;9.02;64.79
15670;BME280;18524;45.190;5.732;2023-02-16T23:40:30;100591.06;;;8.95;65.32
15670;BME280;18524;45.190;5.732;2023-02-16T23:45:21;100585.50;;;9.01;64.84
15670;BME280;18524;45.190;5.732;2023-02-16T23:50:11;100588.72;;;8.89;65.31
15670;BME280;18524;45.190;5.732;2023-02-16T23:55:01;100582.81;;;8.86;65.73
15670;BME280;18524;45.190;5.732;2023-02-16T23:59:52;100595.50;;;8.76;64.98
